Time;durP1;ratioP1;P1;durP2;ratioP2;P2;SDS_P1;SDS_P2;PMS_P1;PMS_P2;Temp;Humidity;BMP_temperature;BMP_pressure;BME280_temperature;BME280_humidity;BME280_pressure;Samples;Min_cycle;Max_cycle;Signal;HPM_P1;HPM_P2
2021/06/09 00:00:09;;;;;;;9.67;8.70;;;;;;;16.22;73.05;102321.28;693832;28;935;-61
2021/06/09 00:00:30;;;;;;;9.70;8.80;;;;;;;16.21;73.61;102324.84;693901;28;1199;-63
2021/06/09 00:00:51;;;;;;;9.82;8.93;;;;;;;16.19;73.30;102324.94;693696;28;903;-62
2021/06/09 00:01:12;;;;;;;10.10;9.20;;;;;;;16.20;72.99;102325.78;693992;28;860;-62
2021/06/09 00:01:32;;;;;;;10.23;9.30;;;;;;;16.21;72.75;102327.50;693761;28;1058;-61
2021/06/09 00:01:52;;;;;;;10.20;9.20;;;;;;;16.20;72.82;102329.31;693737;28;955;-62
2021/06/09 00:02:13;;;;;;;10.05;9.15;;;;;;;16.20;72.78;102325.78;693896;28;908;-61
2021/06/09 00:02:36;;;;;;;9.93;9.00;;;;;;;16.21;73.10;102327.50;693866;28;962;-61
2021/06/09 00:02:57;;;;;;;10.60;9.30;;;;;;;16.22;72.64;102327.47;693853;28;839;-62
2021/06/09 00:03:20;;;;;;;10.10;9.00;;;;;;;16.20;73.09;102328.44;693924;28;915;-63
2021/06/09 00:03:40;;;;;;;10.05;9.05;;;;;;;16.20;72.85;102325.78;694107;28;1270;-62
2021/06/09 00:04:01;;;;;;;9.98;9.05;;;;;;;16.22;72.72;102326.63;693971;28;838;-62
2021/06/09 00:04:21;;;;;;;10.13;9.13;;;;;;;16.23;72.56;102325.66;693922;28;959;-63
2021/06/09 00:04:41;;;;;;;10.60;9.27;;;;;;;16.25;72.72;102329.16;693601;28;1241;-63
2021/06/09 00:05:06;;;;;;;10.30;9.30;;;;;;;16.25;72.50;102322.03;693929;28;962;-62
2021/06/09 00:05:27;;;;;;;10.25;9.25;;;;;;;16.26;72.68;102320.22;693830;28;1269;-62
2021/06/09 00:05:48;;;;;;;10.27;9.27;;;;;;;16.23;72.65;102323.88;693881;28;884;-62
2021/06/09 00:06:09;;;;;;;10.50;9.50;;;;;;;16.24;72.17;102324.72;693897;28;1026;-62
2021/06/09 00:06:29;;;;;;;10.50;9.40;;;;;;;16.23;72.38;102320.34;693866;28;925;-62
2021/06/09 00:06:52;;;;;;;10.30;9.23;;;;;;;16.22;72.62;102323.94;693672;28;856;-62
2021/06/09 00:07:12;;;;;;;10.70;9.60;;;;;;;16.20;72.52;102325.78;694038;28;903;-62
2021/06/09 00:07:35;;;;;;;11.20;10.10;;;;;;;16.20;72.66;102331.13;694407;28;1290;-62
2021/06/09 00:07:59;;;;;;;10.90;9.80;;;;;;;16.16;72.56;102324.19;694505;28;959;-62
2021/06/09 00:08:19;;;;;;;10.43;9.43;;;;;;;16.16;72.79;102324.19;694791;28;970;-62
2021/06/09 00:08:39;;;;;;;11.03;9.83;;;;;;;16.14;72.76;102322.47;694142;28;864;-62
2021/06/09 00:08:59;;;;;;;11.10;10.00;;;;;;;16.16;72.75;102326.84;694361;28;923;-62
2021/06/09 00:09:20;;;;;;;10.60;9.60;;;;;;;16.16;73.04;102325.06;694546;28;825;-62
2021/06/09 00:09:40;;;;;;;10.37;9.37;;;;;;;16.19;73.03;102329.41;694489;28;989;-62
2021/06/09 00:10:05;;;;;;;10.60;9.60;;;;;;;16.17;72.95;102320.59;694724;28;796;-62
2021/06/09 00:10:25;;;;;;;10.93;9.85;;;;;;;16.19;72.71;102327.59;694604;28;817;-62
2021/06/09 00:10:55;;;;;;;10.65;9.55;;;;;;;16.19;72.97;102324.06;694510;28;891;-62
2021/06/09 00:11:15;;;;;;;10.93;9.82;;;;;;;16.17;72.97;102325.91;694404;28;931;-62
2021/06/09 00:11:35;;;;;;;10.60;9.60;;;;;;;16.19;73.18;102324.94;694548;28;879;-62
2021/06/09 00:11:58;;;;;;;10.40;9.40;;;;;;;16.19;72.83;102324.94;694048;28;978;-62
2021/06/09 00:12:19;;;;;;;10.35;9.25;;;;;;;16.21;73.16;102325.75;693862;28;903;-62
2021/06/09 00:12:39;;;;;;;10.23;9.20;;;;;;;16.21;72.86;102322.19;693772;28;950;-61
2021/06/09 00:13:00;;;;;;;10.68;9.68;;;;;;;16.22;72.69;102326.63;693624;28;897;-61
2021/06/09 00:13:22;;;;;;;10.37;9.43;;;;;;;16.23;72.64;102323.00;693704;28;970;-62
2021/06/09 00:13:42;;;;;;;10.27;9.27;;;;;;;16.22;73.05;102329.28;693707;28;1504;-61
2021/06/09 00:14:04;;;;;;;10.67;9.60;;;;;;;16.20;72.88;102326.66;694813;28;1451;-61
2021/06/09 00:14:24;;;;;;;10.73;9.70;;;;;;;16.16;73.49;102324.19;693768;28;855;-62
2021/06/09 00:14:56;;;;;;;10.53;9.47;;;;;;;16.17;73.34;102325.91;693584;28;1295;-61
2021/06/09 00:15:17;;;;;;;11.18;10.07;;;;;;;16.16;73.15;102324.19;694982;28;1421;-61
2021/06/09 00:15:38;;;;;;;11.05;9.95;;;;;;;16.17;73.31;102324.13;696517;28;882;-61
2021/06/09 00:16:07;;;;;;;10.73;9.63;;;;;;;16.18;73.41;102325.00;696366;28;1973;-62
2021/06/09 00:16:27;;;;;;;10.85;9.75;;;;;;;16.19;73.24;102321.41;696489;28;908;-63
2021/06/09 00:16:48;;;;;;;10.93;9.83;;;;;;;16.20;73.47;102323.13;696449;28;970;-63
2021/06/09 00:17:11;;;;;;;10.80;9.80;;;;;;;16.15;73.28;102323.34;696402;28;862;-62
2021/06/09 00:17:31;;;;;;;10.90;9.80;;;;;;;16.11;73.46;102322.59;696207;28;1530;-62
2021/06/09 00:17:51;;;;;;;11.30;10.10;;;;;;;16.13;73.46;102326.03;696263;28;872;-62
2021/06/09 00:18:12;;;;;;;11.23;10.13;;;;;;;16.12;73.31;102319.00;696374;28;1079;-62
2021/06/09 00:18:40;;;;;;;11.17;10.10;;;;;;;16.08;73.40;102325.38;695771;28;894;-63
2021/06/09 00:19:00;;;;;;;10.82;9.73;;;;;;;16.11;73.55;102327.91;696143;28;1101;-63
2021/06/09 00:19:24;;;;;;;11.23;10.13;;;;;;;16.09;73.76;102323.59;696303;28;826;-62
2021/06/09 00:19:44;;;;;;;11.48;10.38;;;;;;;16.06;74.19;102329.88;696412;28;863;-62
2021/06/09 00:20:10;;;;;;;10.75;9.75;;;;;;;16.09;74.07;102329.78;696536;28;855;-63
2021/06/09 00:20:30;;;;;;;10.98;9.98;;;;;;;16.06;74.05;102329.88;696422;28;891;-61
2021/06/09 00:20:51;;;;;;;10.80;9.70;;;;;;;16.04;74.07;102331.78;696498;28;855;-62
2021/06/09 00:21:15;;;;;;;10.63;9.53;;;;;;;16.07;73.91;102334.31;696243;28;1010;-62
2021/06/09 00:21:39;;;;;;;10.90;9.85;;;;;;;16.00;74.34;102327.50;696095;28;994;-61
2021/06/09 00:21:59;;;;;;;10.82;9.82;;;;;;;16.02;74.50;102332.75;696331;28;887;-62
2021/06/09 00:22:20;;;;;;;11.02;9.93;;;;;;;16.04;74.28;102330.91;696138;28;1425;-62
2021/06/09 00:22:40;;;;;;;10.97;9.93;;;;;;;16.03;74.13;102330.00;695760;28;1417;-62
2021/06/09 00:23:00;;;;;;;11.45;10.35;;;;;;;16.05;74.37;102322.00;696269;28;804;-61
2021/06/09 00:23:25;;;;;;;11.10;10.00;;;;;;;16.07;74.23;102323.66;696518;28;816;-61
2021/06/09 00:23:47;;;;;;;10.20;9.20;;;;;;;16.09;73.86;102334.22;696476;28;860;-62
2021/06/09 00:24:08;;;;;;;10.98;9.75;;;;;;;16.07;74.08;102334.31;696132;28;1474;-62
2021/06/09 00:24:28;;;;;;;10.83;9.73;;;;;;;16.03;74.38;102332.66;694558;28;1362;-62
2021/06/09 00:24:48;;;;;;;10.53;9.53;;;;;;;16.03;74.02;102327.34;693721;28;863;-63
2021/06/09 00:25:15;;;;;;;10.23;9.23;;;;;;;16.03;74.23;102335.34;693624;28;919;-63
2021/06/09 00:25:35;;;;;;;10.65;9.65;;;;;;;15.99;74.34;102336.38;693541;28;1317;-62
2021/06/09 00:26:00;;;;;;;10.60;9.60;;;;;;;16.02;74.21;102332.75;693708;28;852;-62
2021/06/09 00:26:27;;;;;;;10.13;9.20;;;;;;;16.03;74.07;102330.00;693548;28;1321;-63
2021/06/09 00:26:47;;;;;;;10.88;9.88;;;;;;;16.05;73.96;102335.28;693694;28;899;-62
2021/06/09 00:27:07;;;;;;;10.90;9.90;;;;;;;16.04;73.98;102330.91;693616;28;923;-62
2021/06/09 00:27:28;;;;;;;10.70;9.80;;;;;;;16.00;74.27;102330.16;693658;28;1083;-63
2021/06/09 00:27:52;;;;;;;11.17;10.07;;;;;;;16.00;74.13;102329.28;693667;28;974;-62
2021/06/09 00:28:12;;;;;;;11.20;9.85;;;;;;;16.03;73.92;102329.16;693695;28;1176;-62
2021/06/09 00:28:34;;;;;;;10.75;9.65;;;;;;;16.05;73.83;102332.63;693288;28;796;-62
2021/06/09 00:28:55;;;;;;;10.82;9.82;;;;;;;16.04;73.87;102325.59;693597;28;904;-62
2021/06/09 00:29:15;;;;;;;10.82;9.82;;;;;;;16.00;74.28;102335.47;693661;28;832;-63
2021/06/09 00:29:36;;;;;;;11.23;10.13;;;;;;;16.00;74.23;102335.47;693751;28;1006;-63
2021/06/09 00:29:58;;;;;;;11.10;10.03;;;;;;;15.99;74.22;102328.41;693490;28;990;-62
2021/06/09 00:30:23;;;;;;;10.65;9.60;;;;;;;16.04;74.15;102333.56;693708;28;926;-62
2021/06/09 00:30:44;;;;;;;10.93;9.82;;;;;;;16.04;74.07;102330.91;693545;28;1563;-62
2021/06/09 00:31:06;;;;;;;11.00;9.90;;;;;;;16.00;74.05;102330.16;693609;28;994;-62
2021/06/09 00:31:27;;;;;;;10.95;9.90;;;;;;;16.00;74.32;102332.81;693717;28;1022;-61
2021/06/09 00:31:48;;;;;;;11.10;10.00;;;;;;;15.99;74.54;102328.41;693530;28;861;-61
2021/06/09 00:32:11;;;;;;;10.77;9.77;;;;;;;15.97;74.22;102332.94;693601;28;1033;-62
2021/06/09 00:32:34;;;;;;;10.88;9.77;;;;;;;15.98;74.53;102328.50;693680;28;874;-62
2021/06/09 00:32:56;;;;;;;11.00;9.90;;;;;;;16.01;74.11;102331.88;693772;28;871;-62
2021/06/09 00:33:16;;;;;;;11.68;10.55;;;;;;;15.96;74.24;102328.53;693694;28;990;-62
2021/06/09 00:33:36;;;;;;;11.53;10.43;;;;;;;15.98;74.10;102329.34;693698;28;900;-61
2021/06/09 00:33:57;;;;;;;11.33;10.13;;;;;;;15.99;74.04;102333.72;693672;28;903;-61
2021/06/09 00:34:17;;;;;;;11.35;10.25;;;;;;;16.00;74.12;102330.16;693763;28;1026;-62
2021/06/09 00:34:37;;;;;;;11.63;10.43;;;;;;;15.97;74.10;102340.06;693569;28;1312;-62
2021/06/09 00:34:58;;;;;;;11.85;10.65;;;;;;;15.95;73.96;102328.59;693726;28;1002;-62
2021/06/09 00:35:18;;;;;;;11.03;9.93;;;;;;;15.98;73.90;102333.81;693600;28;879;-61
2021/06/09 00:35:41;;;;;;;11.20;10.10;;;;;;;15.95;73.95;102332.13;693669;28;867;-62
2021/06/09 00:36:02;;;;;;;11.15;10.15;;;;;;;15.91;74.03;102327.88;693418;28;2220;-62
2021/06/09 00:36:22;;;;;;;11.33;10.23;;;;;;;15.93;74.18;102328.66;693431;28;1018;-62
2021/06/09 00:36:45;;;;;;;11.38;10.30;;;;;;;15.92;74.05;102329.59;693473;28;963;-62
2021/06/09 00:37:05;;;;;;;12.00;10.90;;;;;;;15.90;74.29;102334.13;693473;28;872;-62
2021/06/09 00:37:25;;;;;;;11.57;10.48;;;;;;;15.89;74.60;102332.38;693326;28;975;-62
2021/06/09 00:37:46;;;;;;;11.10;10.10;;;;;;;15.92;74.12;102331.41;693509;28;1014;-62
2021/06/09 00:38:06;;;;;;;11.97;10.77;;;;;;;15.93;74.47;102328.66;693304;28;987;-61
2021/06/09 00:38:28;;;;;;;11.73;10.52;;;;;;;15.93;74.14;102335.78;693356;28;962;-62
2021/06/09 00:38:48;;;;;;;11.82;10.73;;;;;;;15.93;74.33;102333.13;693658;28;853;-62
2021/06/09 00:39:09;;;;;;;11.70;10.60;;;;;;;15.92;74.66;102331.41;693638;28;847;-63
2021/06/09 00:39:29;;;;;;;11.70;10.60;;;;;;;15.89;74.72;102333.22;693679;28;879;-62
2021/06/09 00:39:49;;;;;;;12.17;11.07;;;;;;;15.90;74.88;102331.47;693709;28;931;-62
2021/06/09 00:40:11;;;;;;;11.70;10.60;;;;;;;15.86;75.20;102335.16;693571;28;872;-62
2021/06/09 00:40:33;;;;;;;12.10;11.00;;;;;;;15.86;74.91;102336.03;693797;28;958;-62
2021/06/09 00:40:55;;;;;;;12.07;10.95;;;;;;;15.86;75.18;102332.50;693594;28;812;-63
2021/06/09 00:41:15;;;;;;;12.25;11.05;;;;;;;15.87;74.99;102329.78;693581;28;910;-62
2021/06/09 00:41:36;;;;;;;12.27;11.07;;;;;;;15.85;75.26;102328.13;693729;28;936;-62
2021/06/09 00:42:00;;;;;;;12.15;10.98;;;;;;;15.87;75.21;102335.09;693693;28;840;-62
2021/06/09 00:42:20;;;;;;;11.82;10.65;;;;;;;15.89;75.11;102332.38;693628;28;930;-62
2021/06/09 00:43:02;;;;;;;12.20;11.00;;;;;;;15.92;75.04;102332.25;693719;28;907;-62
2021/06/09 00:43:27;;;;;;;12.32;11.13;;;;;;;15.88;75.03;102331.50;693598;28;899;-62
2021/06/09 00:43:47;;;;;;;12.98;11.68;;;;;;;15.91;74.88;102333.19;693596;28;877;-61
2021/06/09 00:44:08;;;;;;;12.57;11.38;;;;;;;15.94;74.64;102333.06;693738;28;1617;-62
2021/06/09 00:44:30;;;;;;;12.07;10.93;;;;;;;15.93;74.63;102344.59;693443;28;1292;-62
2021/06/09 00:44:54;;;;;;;12.48;11.18;;;;;;;15.96;74.30;102328.53;693744;28;906;-62
2021/06/09 00:45:14;;;;;;;11.93;10.73;;;;;;;16.00;74.35;102334.59;694476;28;1558;-62
2021/06/09 00:45:37;;;;;;;11.43;10.32;;;;;;;16.01;74.39;102336.34;696301;28;1070;-62
2021/06/09 00:46:09;;;;;;;11.77;10.68;;;;;;;15.98;74.06;102337.31;696456;28;1053;-62
2021/06/09 00:46:32;;;;;;;12.43;11.23;;;;;;;15.97;73.93;102334.75;696263;28;919;-62
2021/06/09 00:46:52;;;;;;;11.48;10.48;;;;;;;15.96;73.87;102327.69;696419;28;911;-62
2021/06/09 00:47:19;;;;;;;11.70;10.60;;;;;;;15.92;74.05;102337.56;696225;28;915;-62
2021/06/09 00:47:39;;;;;;;11.75;10.65;;;;;;;15.92;73.68;102332.25;696460;28;876;-62
2021/06/09 00:47:59;;;;;;;11.93;10.80;;;;;;;15.90;73.97;102335.00;696398;28;999;-62
2021/06/09 00:48:25;;;;;;;11.80;10.70;;;;;;;15.87;74.39;102334.25;696429;28;941;-62
2021/06/09 00:48:45;;;;;;;11.70;10.60;;;;;;;15.81;74.55;102334.50;696273;28;881;-62
2021/06/09 00:49:06;;;;;;;12.00;10.90;;;;;;;15.83;74.37;102332.66;696389;28;575;-62
2021/06/09 00:49:26;;;;;;;11.85;10.75;;;;;;;15.83;74.60;102337.97;696409;28;1077;-62
2021/06/09 00:49:46;;;;;;;12.37;11.17;;;;;;;15.79;74.23;102336.31;696455;28;822;-62
2021/06/09 00:50:07;;;;;;;12.23;11.05;;;;;;;15.76;74.23;102333.78;696431;28;844;-62
2021/06/09 00:50:28;;;;;;;12.13;11.03;;;;;;;15.72;74.51;102330.38;696188;28;852;-62
2021/06/09 00:50:48;;;;;;;12.63;11.32;;;;;;;15.72;74.57;102334.84;696399;28;891;-61
2021/06/09 00:51:16;;;;;;;12.03;10.87;;;;;;;15.75;74.59;102329.41;696291;28;1065;-61
2021/06/09 00:51:37;;;;;;;12.25;11.05;;;;;;;15.73;74.55;102329.47;696469;28;928;-62
2021/06/09 00:51:57;;;;;;;12.20;11.00;;;;;;;15.75;74.66;102330.28;696369;28;959;-62
2021/06/09 00:52:27;;;;;;;12.33;11.10;;;;;;;15.78;74.56;102329.28;696497;28;848;-62
2021/06/09 00:52:49;;;;;;;12.32;11.13;;;;;;;15.79;74.04;102333.66;696221;28;1102;-62
2021/06/09 00:53:28;;;;;;;12.40;11.13;;;;;;;15.79;74.28;102331.00;696428;28;848;-62
2021/06/09 00:54:09;;;;;;;12.05;10.88;;;;;;;15.72;74.34;102325.06;696543;28;832;-63
2021/06/09 00:54:29;;;;;;;11.93;10.73;;;;;;;15.73;74.67;102331.28;696458;28;1340;-62
2021/06/09 00:54:52;;;;;;;11.75;10.55;;;;;;;15.71;74.41;102328.66;696168;28;1186;-63
2021/06/09 00:55:15;;;;;;;11.63;10.48;;;;;;;15.71;74.74;102328.66;696474;28;899;-62
2021/06/09 00:55:36;;;;;;;11.68;10.57;;;;;;;15.73;74.46;102325.97;696330;28;1022;-62
2021/06/09 00:55:58;;;;;;;11.65;10.55;;;;;;;15.75;74.22;102329.41;696333;28;1969;-62
2021/06/09 00:56:21;;;;;;;11.40;10.30;;;;;;;15.75;74.44;102326.75;696354;28;1006;-62
2021/06/09 00:56:41;;;;;;;11.43;10.43;;;;;;;15.77;74.45;102322.25;694986;28;1467;-61
2021/06/09 00:57:03;;;;;;;11.83;10.73;;;;;;;15.77;74.36;102327.56;693582;28;880;-61
2021/06/09 00:57:24;;;;;;;11.68;10.57;;;;;;;15.77;74.36;102335.53;693516;28;1124;-61
2021/06/09 00:57:47;;;;;;;11.80;10.70;;;;;;;15.79;74.43;102331.00;693557;28;859;-62
2021/06/09 00:58:09;;;;;;;11.88;10.77;;;;;;;15.77;74.16;102327.56;693647;28;1002;-61
2021/06/09 00:58:29;;;;;;;11.98;10.77;;;;;;;15.78;74.43;102323.97;693098;28;860;-62
2021/06/09 00:58:54;;;;;;;12.02;10.82;;;;;;;15.80;74.45;102327.44;693635;28;840;-61
2021/06/09 00:59:14;;;;;;;12.40;11.20;;;;;;;15.78;74.06;102327.50;693427;28;995;-62
2021/06/09 00:59:36;;;;;;;12.50;11.30;;;;;;;15.78;74.37;102326.63;693640;28;853;-61
2021/06/09 00:59:56;;;;;;;12.30;11.20;;;;;;;15.77;74.01;102328.44;693596;28;911;-62
2021/06/09 01:00:17;;;;;;;12.43;11.25;;;;;;;15.77;74.52;102316.94;693656;28;820;-62
2021/06/09 01:00:38;;;;;;;12.73;11.53;;;;;;;15.79;74.12;102320.38;693783;28;966;-61
2021/06/09 01:01:00;;;;;;;12.35;11.25;;;;;;;15.81;74.26;102323.84;693456;28;998;-61
2021/06/09 01:01:24;;;;;;;12.25;11.15;;;;;;;15.81;74.27;102324.72;693536;28;987;-62
2021/06/09 01:01:44;;;;;;;12.70;11.45;;;;;;;15.81;73.85;102326.50;693660;28;943;-61
2021/06/09 01:02:11;;;;;;;12.52;11.32;;;;;;;15.81;74.16;102324.72;693497;28;995;-61
2021/06/09 01:02:31;;;;;;;11.85;10.75;;;;;;;15.80;74.17;102316.81;693645;28;931;-62
2021/06/09 01:02:51;;;;;;;12.63;11.43;;;;;;;15.80;73.76;102322.13;693536;28;1043;-62
2021/06/09 01:03:15;;;;;;;12.37;11.17;;;;;;;15.79;74.20;102323.91;693518;28;840;-61
2021/06/09 01:03:36;;;;;;;12.35;11.15;;;;;;;15.80;74.01;102327.44;693614;28;900;-62
2021/06/09 01:03:56;;;;;;;13.23;12.00;;;;;;;15.80;73.88;102322.13;693633;28;1301;-62
2021/06/09 01:04:17;;;;;;;12.93;11.73;;;;;;;15.79;74.12;102321.25;693643;28;858;-61
2021/06/09 01:04:38;;;;;;;12.40;11.30;;;;;;;15.78;74.34;102318.66;693494;28;1213;-61
2021/06/09 01:04:58;;;;;;;13.27;12.00;;;;;;;15.74;74.45;102315.25;693629;28;891;-61
2021/06/09 01:05:18;;;;;;;12.90;11.70;;;;;;;15.77;74.30;102327.56;693491;28;871;-61
2021/06/09 01:05:39;;;;;;;12.90;11.70;;;;;;;15.77;74.44;102324.91;693444;28;987;-62
2021/06/09 01:05:59;;;;;;;12.95;11.75;;;;;;;15.75;74.19;102324.09;693501;28;860;-62
2021/06/09 01:06:20;;;;;;;13.20;12.00;;;;;;;15.74;74.39;102322.38;693615;28;828;-62
2021/06/09 01:06:40;;;;;;;13.20;11.90;;;;;;;15.72;74.13;102321.56;693544;28;885;-61
2021/06/09 01:07:02;;;;;;;13.18;11.90;;;;;;;15.70;74.35;102321.63;693688;28;872;-61
2021/06/09 01:07:22;;;;;;;13.25;11.95;;;;;;;15.74;74.26;102322.38;693340;28;934;-61
2021/06/09 01:07:43;;;;;;;13.18;11.88;;;;;;;15.72;74.61;102317.09;693575;28;896;-61
2021/06/09 01:08:04;;;;;;;12.97;11.77;;;;;;;15.74;74.20;102327.69;693640;28;905;-61
2021/06/09 01:08:24;;;;;;;12.77;11.57;;;;;;;15.73;74.46;102315.34;692952;28;828;-62
2021/06/09 01:08:45;;;;;;;12.98;11.68;;;;;;;15.70;74.57;102321.63;693291;28;888;-62
2021/06/09 01:09:07;;;;;;;13.23;11.83;;;;;;;15.72;74.41;102322.41;693432;28;827;-62
2021/06/09 01:09:27;;;;;;;12.88;11.60;;;;;;;15.73;74.31;102320.66;693127;28;876;-61
2021/06/09 01:09:50;;;;;;;12.87;11.67;;;;;;;15.72;74.19;102319.75;693475;28;1022;-61
2021/06/09 01:10:14;;;;;;;13.15;11.85;;;;;;;15.73;74.33;102320.66;693352;28;966;-62
2021/06/09 01:10:34;;;;;;;13.68;12.27;;;;;;;15.72;74.18;102319.75;693668;28;912;-61
2021/06/09 01:10:55;;;;;;;12.95;11.75;;;;;;;15.74;74.31;102317.91;693340;28;1341;-61
2021/06/09 01:11:28;;;;;;;12.82;11.63;;;;;;;15.75;74.51;102321.44;693273;28;1613;-62
2021/06/09 01:11:49;;;;;;;12.93;11.63;;;;;;;15.75;74.32;102321.44;693464;28;867;-62
2021/06/09 01:12:10;;;;;;;13.02;11.82;;;;;;;15.76;74.33;102325.81;693361;28;817;-62
2021/06/09 01:12:30;;;;;;;13.10;11.90;;;;;;;15.77;74.23;102317.78;690586;28;1270;-62
2021/06/09 01:12:52;;;;;;;12.80;11.60;;;;;;;15.73;74.70;102320.66;692751;28;955;-62
2021/06/09 01:13:12;;;;;;;12.77;11.57;;;;;;;15.72;74.54;102318.91;693409;28;831;-62
2021/06/09 01:13:32;;;;;;;12.90;11.70;;;;;;;15.69;74.57;102319.00;693291;28;882;-62
2021/06/09 01:13:54;;;;;;;13.30;11.90;;;;;;;15.64;74.87;102322.69;694261;28;1547;-62
2021/06/09 01:14:18;;;;;;;13.77;12.48;;;;;;;15.62;74.87;102321.91;695174;28;1376;-62
2021/06/09 01:14:38;;;;;;;13.40;12.15;;;;;;;15.65;74.76;102324.41;693464;28;1304;-61
2021/06/09 01:14:59;;;;;;;12.93;11.73;;;;;;;15.64;74.96;102328.00;693628;28;990;-62
2021/06/09 01:15:19;;;;;;;12.80;11.60;;;;;;;15.61;74.67;102325.47;694950;28;1507;-62
2021/06/09 01:15:40;;;;;;;13.23;12.02;;;;;;;15.58;74.78;102324.72;695861;28;1526;-61
2021/06/09 01:16:01;;;;;;;13.73;12.52;;;;;;;15.57;75.03;102326.53;696278;28;1905;-63
2021/06/09 01:16:23;;;;;;;13.80;12.50;;;;;;;15.48;75.21;102321.56;694782;28;1533;-62
2021/06/09 01:16:44;;;;;;;13.48;12.25;;;;;;;15.48;75.06;102326.88;693551;28;896;-61
2021/06/09 01:17:04;;;;;;;13.73;12.43;;;;;;;15.47;75.31;102321.63;693607;28;854;-62
2021/06/09 01:17:25;;;;;;;14.07;12.77;;;;;;;15.47;75.29;102319.84;693475;28;1049;-62
2021/06/09 01:17:46;;;;;;;14.25;12.85;;;;;;;15.46;75.31;102323.44;693476;28;1012;-62
2021/06/09 01:18:07;;;;;;;14.30;12.90;;;;;;;15.46;75.21;102318.13;693740;28;950;-62
2021/06/09 01:18:30;;;;;;;14.20;12.88;;;;;;;15.47;75.33;102322.50;693157;28;946;-62
2021/06/09 01:18:52;;;;;;;14.30;13.05;;;;;;;15.47;75.61;102319.84;693615;28;922;-62
2021/06/09 01:19:12;;;;;;;13.68;12.40;;;;;;;15.49;75.65;102319.78;693625;28;943;-62
2021/06/09 01:19:32;;;;;;;13.77;12.47;;;;;;;15.52;75.45;102323.19;693321;28;1050;-62
2021/06/09 01:19:53;;;;;;;13.73;12.43;;;;;;;15.53;75.11;102330.22;693608;28;990;-62
2021/06/09 01:20:13;;;;;;;13.65;12.35;;;;;;;15.54;75.28;102323.13;693451;28;1502;-62
2021/06/09 01:20:34;;;;;;;13.90;12.60;;;;;;;15.56;75.40;102330.13;694609;28;1584;-62
2021/06/09 01:20:57;;;;;;;14.30;13.00;;;;;;;15.58;75.24;102324.72;693570;28;829;-62
2021/06/09 01:21:31;;;;;;;14.43;13.05;;;;;;;15.56;75.13;102323.94;693564;28;888;-62
2021/06/09 01:21:52;;;;;;;14.18;12.82;;;;;;;15.58;74.86;102322.94;693546;28;947;-62
2021/06/09 01:22:12;;;;;;;14.20;12.90;;;;;;;15.59;75.07;102324.69;693588;28;849;-62
2021/06/09 01:22:33;;;;;;;14.20;12.90;;;;;;;15.60;74.75;102326.41;693582;28;927;-61
2021/06/09 01:22:53;;;;;;;14.27;12.97;;;;;;;15.61;74.82;102328.13;693764;28;902;-61
2021/06/09 01:23:14;;;;;;;14.40;13.10;;;;;;;15.60;74.96;102326.41;693425;28;1177;-61
2021/06/09 01:23:36;;;;;;;14.65;13.25;;;;;;;15.60;74.70;102325.53;693452;28;947;-62
2021/06/09 01:24:01;;;;;;;14.82;13.40;;;;;;;15.60;75.04;102313.13;693445;28;899;-62
2021/06/09 01:24:21;;;;;;;15.05;13.43;;;;;;;15.60;75.05;102321.09;693594;28;1350;-62
2021/06/09 01:24:41;;;;;;;15.63;14.13;;;;;;;15.59;74.71;102319.38;693404;28;1601;-61
2021/06/09 01:25:07;;;;;;;15.07;13.77;;;;;;;15.57;75.04;102326.53;696035;28;1569;-61
2021/06/09 01:25:28;;;;;;;14.35;13.05;;;;;;;15.50;75.54;102319.72;696300;28;921;-63
2021/06/09 01:25:49;;;;;;;14.50;13.20;;;;;;;15.46;75.45;102318.13;696270;28;1089;-62
2021/06/09 01:26:10;;;;;;;14.73;13.38;;;;;;;15.45;75.46;102316.38;696287;28;835;-62
2021/06/09 01:26:32;;;;;;;15.13;13.73;;;;;;;15.47;75.51;102317.19;696105;28;1577;-62
2021/06/09 01:26:52;;;;;;;14.98;13.68;;;;;;;15.48;75.36;102321.56;696195;28;855;-62
2021/06/09 01:27:12;;;;;;;15.50;14.10;;;;;;;15.49;75.23;102325.09;696242;28;987;-62
2021/06/09 01:27:33;;;;;;;15.20;13.80;;;;;;;15.48;75.42;102321.56;696072;28;788;-62
2021/06/09 01:27:53;;;;;;;15.25;13.80;;;;;;;15.49;75.26;102312.69;696076;28;910;-62
2021/06/09 01:28:14;;;;;;;15.40;14.00;;;;;;;15.50;75.52;102322.38;696317;28;773;-62
2021/06/09 01:28:36;;;;;;;15.45;13.95;;;;;;;15.51;75.23;102321.44;695867;28;903;-62
2021/06/09 01:28:57;;;;;;;15.32;13.93;;;;;;;15.48;75.28;102324.22;696316;28;1246;-62
2021/06/09 01:29:18;;;;;;;14.93;13.52;;;;;;;15.53;75.31;102319.59;696388;28;890;-62
2021/06/09 01:29:40;;;;;;;15.02;13.63;;;;;;;15.51;75.58;102320.59;696294;28;1028;-62
2021/06/09 01:30:01;;;;;;;15.70;14.20;;;;;;;15.52;75.33;102323.19;696326;28;828;-62
2021/06/09 01:30:21;;;;;;;15.77;14.23;;;;;;;15.50;75.54;102324.16;696215;28;1029;-62
2021/06/09 01:30:43;;;;;;;15.38;13.98;;;;;;;15.49;75.82;102323.31;696379;28;994;-61
2021/06/09 01:31:05;;;;;;;15.48;14.07;;;;;;;15.48;75.65;102326.88;696362;28;831;-61
2021/06/09 01:31:26;;;;;;;15.30;13.90;;;;;;;15.49;75.57;102325.09;696273;28;887;-62
2021/06/09 01:31:46;;;;;;;15.50;14.10;;;;;;;15.50;75.87;102325.03;696353;28;855;-62
2021/06/09 01:32:08;;;;;;;15.27;13.87;;;;;;;15.52;75.47;102322.31;696150;28;933;-61
2021/06/09 01:32:32;;;;;;;15.43;14.02;;;;;;;15.52;75.24;102322.31;696344;28;843;-62
2021/06/09 01:32:53;;;;;;;15.35;13.95;;;;;;;15.53;75.20;102322.25;696233;28;881;-62
2021/06/09 01:33:14;;;;;;;15.20;13.85;;;;;;;15.52;75.21;102323.19;696268;28;903;-63
2021/06/09 01:33:35;;;;;;;15.65;14.25;;;;;;;15.52;75.43;102328.50;696322;28;973;-62
2021/06/09 01:33:55;;;;;;;15.33;13.93;;;;;;;15.52;75.38;102325.84;696408;28;922;-62
2021/06/09 01:34:17;;;;;;;15.85;14.38;;;;;;;15.52;75.39;102325.84;696213;28;848;-62
2021/06/09 01:34:37;;;;;;;15.88;14.38;;;;;;;15.52;75.33;102325.84;696302;28;1511;-62
2021/06/09 01:35:01;;;;;;;15.35;14.00;;;;;;;15.52;75.29;102328.50;696184;28;847;-64
2021/06/09 01:35:22;;;;;;;15.60;14.20;;;;;;;15.53;75.24;102329.38;696379;28;914;-63
2021/06/09 01:35:48;;;;;;;15.75;14.25;;;;;;;15.52;75.25;102319.66;696373;28;924;-62
2021/06/09 01:36:12;;;;;;;16.08;14.52;;;;;;;15.50;74.96;102325.03;696266;28;880;-62
2021/06/09 01:36:39;;;;;;;15.70;14.20;;;;;;;15.52;75.00;102323.19;696356;28;906;-62
2021/06/09 01:36:59;;;;;;;15.55;14.15;;;;;;;15.50;75.05;102322.38;696405;28;887;-62
2021/06/09 01:37:19;;;;;;;16.40;14.90;;;;;;;15.53;75.01;102326.72;696365;28;924;-62
2021/06/09 01:37:40;;;;;;;16.00;14.60;;;;;;;15.47;74.90;102318.97;696191;28;1026;-62
2021/06/09 01:38:01;;;;;;;16.15;14.65;;;;;;;15.45;75.33;102316.38;696318;28;1200;-62
2021/06/09 01:38:25;;;;;;;16.10;14.52;;;;;;;15.49;75.21;102325.09;696279;28;787;-63
2021/06/09 01:38:45;;;;;;;16.17;14.70;;;;;;;15.47;75.38;102324.28;696060;28;985;-62
2021/06/09 01:39:26;;;;;;;16.27;14.80;;;;;;;15.43;75.03;102318.22;696388;28;946;-62
2021/06/09 01:39:46;;;;;;;16.65;15.05;;;;;;;15.40;75.13;102326.31;693285;28;2124;-62
2021/06/09 01:40:11;;;;;;;16.30;14.67;;;;;;;15.39;75.36;102322.78;693658;28;843;-62
2021/06/09 01:40:32;;;;;;;16.25;14.60;;;;;;;15.40;75.24;102323.66;693318;28;1892;-62
2021/06/09 01:40:52;;;;;;;16.08;14.57;;;;;;;15.42;75.11;102324.47;693557;28;984;-62
2021/06/09 01:41:19;;;;;;;15.60;14.10;;;;;;;15.42;75.29;102321.81;693541;28;1256;-62
2021/06/09 01:41:44;;;;;;;16.20;14.70;;;;;;;15.42;75.34;102327.13;693665;28;970;-62
2021/06/09 01:42:05;;;;;;;16.20;14.68;;;;;;;15.38;75.40;102320.19;693625;28;873;-62
2021/06/09 01:42:28;;;;;;;16.15;14.65;;;;;;;15.34;75.30;102319.44;693663;28;788;-62
2021/06/09 01:42:50;;;;;;;16.35;14.80;;;;;;;15.36;75.40;102325.56;693577;28;828;-62
2021/06/09 01:43:11;;;;;;;16.13;14.63;;;;;;;15.38;75.38;102326.38;693630;28;909;-62
2021/06/09 01:43:31;;;;;;;16.33;14.83;;;;;;;15.39;75.27;102327.25;693462;28;1036;-63